createdAt,value
2023-01-17T00:02:15.295Z,25.40
2023-01-17T00:05:02.100Z,26.20
2023-01-17T00:07:49.286Z,26.50
2023-01-17T00:10:22.715Z,24.80
2023-01-17T00:12:53.798Z,26.00
2023-01-17T00:15:25.641Z,26.50
2023-01-17T00:17:54.488Z,27.10
2023-01-17T00:20:44.308Z,26.40
2023-01-17T00:23:38.795Z,23.70
2023-01-17T00:26:16.774Z,25.80
2023-01-17T00:28:46.056Z,24.70
2023-01-17T00:31:15.720Z,25.00
2023-01-17T00:33:44.041Z,23.90
2023-01-17T00:36:12.579Z,24.10
2023-01-17T00:38:43.691Z,25.10
2023-01-17T00:41:14.332Z,26.30
2023-01-17T00:44:01.180Z,28.10
2023-01-17T00:46:47.958Z,25.50
2023-01-17T00:49:34.643Z,26.20
2023-01-17T00:52:21.388Z,26.10
2023-01-17T00:55:08.047Z,25.40
2023-01-17T00:57:54.709Z,30.30
2023-01-17T01:00:41.643Z,27.30
2023-01-17T01:03:30.170Z,26.00
2023-01-17T01:06:17.061Z,24.50
2023-01-17T01:09:06.728Z,26.50
2023-01-17T01:11:53.465Z,22.80
2023-01-17T01:14:40.412Z,23.10
2023-01-17T01:17:30.598Z,23.50
2023-01-17T01:20:20.535Z,22.20
2023-01-17T01:23:07.201Z,22.80
2023-01-17T01:25:55.312Z,21.40
2023-01-17T01:28:42.468Z,21.90
2023-01-17T01:31:31.595Z,24.70
2023-01-17T01:33:59.723Z,24.60
2023-01-17T01:36:27.745Z,25.60
2023-01-17T01:38:56.940Z,25.70
2023-01-17T01:41:25.079Z,27.40
2023-01-17T01:43:55.839Z,24.10
2023-01-17T01:46:39.747Z,25.40
2023-01-17T01:49:21.713Z,24.80
2023-01-17T01:51:55.624Z,25.40
2023-01-17T01:54:44.776Z,27.90
2023-01-17T01:57:17.675Z,24.10
2023-01-17T01:59:51.860Z,24.10
2023-01-17T02:04:49.459Z,23.80
2023-01-17T02:07:28.899Z,26.00
2023-01-17T02:09:58.744Z,26.70
2023-01-17T02:12:27.677Z,29.90
2023-01-17T02:14:56.249Z,26.70
2023-01-17T02:17:52.617Z,24.30
2023-01-17T02:20:32.152Z,23.50
2023-01-17T02:23:26.257Z,26.90
2023-01-17T02:26:10.368Z,23.80
2023-01-17T02:29:06.990Z,26.30
2023-01-17T02:32:12.438Z,25.30
2023-01-17T02:34:47.668Z,22.60
2023-01-17T02:37:49.044Z,21.30
2023-01-17T02:40:25.168Z,22.60
2023-01-17T02:42:58.805Z,22.10
2023-01-17T02:45:27.194Z,23.70
2023-01-17T02:47:55.372Z,24.50
2023-01-17T02:50:49.452Z,24.30
2023-01-17T02:53:28.094Z,24.20
2023-01-17T02:56:32.713Z,25.90
2023-01-17T03:01:35.123Z,24.30
2023-01-17T03:04:22.209Z,22.80
2023-01-17T03:06:59.045Z,25.40
2023-01-17T03:09:30.943Z,24.40
2023-01-17T03:11:59.728Z,24.50
2023-01-17T03:14:31.095Z,24.20
2023-01-17T03:16:59.633Z,24.10
2023-01-17T03:19:27.745Z,26.20
2023-01-17T03:21:55.787Z,24.70
2023-01-17T03:24:23.937Z,24.80
2023-01-17T03:26:52.006Z,25.10
2023-01-17T03:29:20.495Z,24.90
2023-01-17T03:31:48.838Z,25.40
2023-01-17T03:34:16.939Z,22.70
2023-01-17T03:36:45.151Z,23.30
2023-01-17T03:39:13.323Z,24.70
2023-01-17T03:41:41.363Z,24.90
2023-01-17T03:44:09.656Z,25.30
2023-01-17T03:46:38.008Z,24.20
2023-01-17T03:49:06.347Z,22.10
2023-01-17T03:51:34.491Z,22.10
2023-01-17T03:54:02.664Z,22.20
2023-01-17T03:56:30.859Z,22.00
2023-01-17T03:58:59.025Z,23.00
2023-01-17T04:01:27.097Z,21.70
2023-01-17T04:03:55.447Z,21.90
2023-01-17T04:06:28.545Z,21.50
2023-01-17T04:08:56.611Z,21.10
2023-01-17T04:11:27.972Z,21.80
2023-01-17T04:13:58.680Z,22.90
2023-01-17T04:16:30.746Z,21.20
2023-01-17T04:18:59.015Z,24.00
2023-01-17T04:21:27.263Z,26.30
2023-01-17T04:23:55.326Z,26.10
2023-01-17T04:26:23.751Z,21.80
2023-01-17T04:28:51.899Z,22.60
2023-01-17T04:31:20.124Z,23.80
2023-01-17T04:33:48.280Z,22.90
2023-01-17T04:36:16.432Z,23.40
2023-01-17T04:38:44.725Z,23.70
2023-01-17T04:41:13.259Z,23.90
2023-01-17T04:43:41.351Z,23.80
2023-01-17T04:46:11.016Z,22.90
2023-01-17T04:48:39.363Z,23.80
2023-01-17T04:51:07.652Z,23.80
2023-01-17T04:53:35.942Z,24.50
2023-01-17T04:56:04.560Z,22.10
2023-01-17T04:58:33.503Z,23.60
2023-01-17T05:01:04.201Z,24.10
2023-01-17T05:03:33.427Z,26.30
2023-01-17T05:06:01.896Z,25.10
2023-01-17T05:08:30.404Z,25.80
2023-01-17T05:10:58.735Z,26.30
2023-01-17T05:13:30.278Z,25.40
2023-01-17T05:15:58.832Z,34.60
2023-01-17T05:18:27.269Z,33.20
2023-01-17T05:21:01.700Z,35.60
2023-01-17T05:23:30.244Z,27.00
2023-01-17T05:25:58.535Z,30.80
2023-01-17T05:28:26.886Z,32.60
2023-01-17T05:30:55.311Z,27.50
2023-01-17T05:33:23.468Z,25.70
2023-01-17T05:35:52.004Z,28.30
2023-01-17T05:38:20.472Z,26.10
2023-01-17T05:40:51.028Z,27.70
2023-01-17T05:43:19.845Z,25.60
2023-01-17T05:45:51.652Z,27.00
2023-01-17T05:48:20.683Z,28.10
2023-01-17T05:50:48.979Z,26.50
2023-01-17T05:53:17.764Z,26.80
2023-01-17T05:55:46.045Z,25.40
2023-01-17T05:58:17.436Z,27.00
2023-01-17T06:00:45.872Z,31.50
2023-01-17T06:03:14.227Z,27.70
2023-01-17T06:05:43.016Z,31.00
2023-01-17T06:08:11.439Z,30.60
2023-01-17T06:10:40.070Z,31.70
2023-01-17T06:13:15.375Z,34.40
2023-01-17T06:15:46.848Z,31.50
2023-01-17T06:18:17.547Z,30.30
2023-01-17T06:20:45.834Z,28.50
2023-01-17T06:23:16.737Z,30.00
2023-01-17T06:25:46.846Z,30.10
2023-01-17T06:28:17.692Z,30.00
2023-01-17T06:30:46.361Z,31.70
2023-01-17T06:33:15.127Z,30.20
2023-01-17T06:35:51.038Z,30.50
2023-01-17T06:38:19.644Z,36.80
2023-01-17T06:40:47.887Z,37.60
2023-01-17T06:43:16.252Z,31.10
2023-01-17T06:45:49.358Z,30.10
2023-01-17T06:48:19.141Z,31.40
2023-01-17T06:50:49.902Z,50.70
2023-01-17T06:53:18.284Z,37.50
2023-01-17T06:55:46.833Z,37.60
2023-01-17T06:58:15.127Z,35.10
2023-01-17T07:00:44.131Z,33.30
2023-01-17T07:03:20.182Z,31.70
2023-01-17T07:05:49.079Z,32.30
2023-01-17T07:08:22.616Z,30.20
2023-01-17T07:11:01.625Z,27.40
2023-01-17T07:13:36.218Z,28.20
2023-01-17T07:16:06.213Z,29.00
2023-01-17T07:18:35.294Z,30.10
2023-01-17T07:21:03.372Z,29.10
2023-01-17T07:23:31.623Z,27.20
2023-01-17T07:26:01.179Z,30.20
2023-01-17T07:28:29.548Z,27.70
2023-01-17T07:31:08.071Z,30.50
2023-01-17T07:33:36.606Z,31.90
2023-01-17T07:36:07.604Z,37.40
2023-01-17T07:38:36.139Z,38.00
2023-01-17T07:41:04.483Z,32.80
2023-01-17T07:43:32.674Z,36.30
2023-01-17T07:46:02.193Z,33.60
2023-01-17T07:48:30.982Z,32.30
2023-01-17T07:51:02.011Z,29.30
2023-01-17T07:53:33.078Z,32.90
2023-01-17T07:56:06.366Z,31.20
2023-01-17T07:58:35.810Z,33.30
2023-01-17T08:01:07.356Z,34.10
2023-01-17T08:03:40.183Z,31.00
2023-01-17T08:06:23.893Z,26.80
2023-01-17T08:08:56.438Z,25.80
2023-01-17T08:11:25.200Z,28.10
2023-01-17T08:13:59.474Z,27.10
2023-01-17T08:16:28.857Z,23.40
2023-01-17T08:18:59.749Z,22.50
2023-01-17T08:21:31.067Z,20.70
2023-01-17T08:23:59.298Z,22.70
2023-01-17T08:26:27.658Z,23.50
2023-01-17T08:29:00.269Z,24.00
2023-01-17T08:31:30.729Z,25.70
2023-01-17T08:34:01.693Z,26.20
2023-01-17T08:36:31.316Z,25.10
2023-01-17T08:38:59.787Z,24.90
2023-01-17T08:41:28.256Z,24.20
2023-01-17T08:43:56.568Z,24.00
2023-01-17T08:46:24.959Z,21.90
2023-01-17T08:48:58.756Z,21.10
2023-01-17T08:51:27.616Z,18.80
2023-01-17T08:53:56.823Z,17.80
2023-01-17T08:56:27.967Z,18.20
2023-01-17T08:58:56.245Z,17.60
2023-01-17T09:01:24.752Z,18.10
2023-01-17T09:03:56.601Z,17.00
2023-01-17T09:06:24.936Z,17.10
2023-01-17T09:08:54.940Z,17.70
2023-01-17T09:11:23.298Z,18.60
2023-01-17T09:13:51.560Z,18.30
2023-01-17T09:16:20.052Z,19.90
2023-01-17T09:18:57.900Z,17.20
2023-01-17T09:21:27.093Z,17.70
2023-01-17T09:23:55.610Z,18.50
2023-01-17T09:26:29.364Z,17.50
2023-01-17T09:31:27.955Z,18.40
2023-01-17T09:33:57.774Z,16.70
2023-01-17T09:36:31.967Z,18.10
2023-01-17T09:39:01.999Z,18.00
2023-01-17T09:41:33.460Z,14.80
2023-01-17T09:44:27.667Z,14.20
2023-01-17T09:49:35.731Z,12.80
2023-01-17T09:52:14.935Z,12.30
2023-01-17T09:54:45.520Z,12.30
2023-01-17T09:57:21.268Z,11.20
2023-01-17T10:00:13.201Z,10.90
2023-01-17T10:03:09.905Z,12.20
2023-01-17T10:05:48.681Z,19.10
2023-01-17T10:08:26.610Z,22.10
2023-01-17T10:11:32.374Z,17.60
2023-01-17T10:14:37.195Z,12.20
2023-01-17T10:17:29.771Z,20.30
2023-01-17T10:20:34.171Z,11.30
2023-01-17T10:23:32.018Z,10.80
2023-01-17T10:26:09.101Z,9.80
2023-01-17T10:28:49.667Z,7.40
2023-01-17T10:31:25.040Z,7.30
2023-01-17T10:34:03.816Z,7.20
2023-01-17T10:36:38.702Z,6.90
2023-01-17T10:39:29.338Z,6.70
2023-01-17T10:42:27.177Z,6.00
2023-01-17T10:45:15.399Z,4.80
2023-01-17T10:47:54.140Z,4.60
2023-01-17T10:50:24.792Z,4.10
2023-01-17T10:52:53.400Z,4.60
2023-01-17T10:55:31.340Z,4.50
2023-01-17T10:57:59.513Z,4.00
2023-01-17T11:00:52.553Z,4.10
2023-01-17T11:03:29.126Z,4.80
2023-01-17T11:06:20.291Z,4.10
2023-01-17T11:09:03.558Z,2.70
2023-01-17T11:11:37.617Z,1.60
2023-01-17T11:14:17.552Z,1.40
2023-01-17T11:16:46.569Z,1.50
2023-01-17T11:19:28.640Z,1.70
2023-01-17T11:22:04.888Z,1.50
2023-01-17T11:24:42.180Z,1.70
2023-01-17T11:27:25.519Z,1.80
2023-01-17T11:30:16.569Z,2.80
2023-01-17T11:32:58.427Z,2.40
2023-01-17T11:35:31.114Z,2.20
2023-01-17T11:37:59.313Z,2.40
2023-01-17T11:40:36.613Z,1.90
2023-01-17T11:43:28.450Z,1.30
2023-01-17T11:46:20.614Z,1.10
2023-01-17T11:48:56.989Z,1.30
2023-01-17T11:51:41.584Z,1.40
2023-01-17T11:54:40.458Z,1.40
2023-01-17T11:57:23.999Z,1.10
2023-01-17T11:59:59.677Z,1.50
2023-01-17T12:02:33.619Z,1.70
2023-01-17T12:05:01.646Z,1.50
2023-01-17T12:07:58.939Z,1.70
2023-01-17T12:10:29.996Z,1.80
2023-01-17T12:13:51.433Z,2.00
2023-01-17T12:16:42.106Z,2.70
2023-01-17T12:19:16.420Z,2.10
2023-01-17T12:22:03.303Z,1.80
2023-01-17T12:24:47.918Z,1.90
2023-01-17T12:27:34.655Z,1.80
2023-01-17T12:30:24.929Z,1.50
2023-01-17T12:33:19.362Z,1.80
2023-01-17T12:35:58.528Z,1.60
2023-01-17T12:38:33.612Z,1.70
2023-01-17T12:41:26.601Z,1.70
2023-01-17T12:43:59.052Z,2.50
2023-01-17T12:46:34.076Z,1.90
2023-01-17T12:49:40.740Z,2.10
2023-01-17T12:52:25.162Z,1.40
2023-01-17T12:55:03.191Z,1.50
2023-01-17T12:57:42.109Z,1.30
2023-01-17T13:00:23.255Z,1.90
2023-01-17T13:02:56.743Z,1.60
2023-01-17T13:08:06.760Z,1.30
2023-01-17T13:10:51.183Z,1.50
2023-01-17T13:13:26.094Z,2.00
2023-01-17T13:16:17.691Z,4.20
2023-01-17T13:18:51.783Z,9.90
2023-01-17T13:21:34.577Z,3.80
2023-01-17T13:24:17.524Z,2.40
2023-01-17T13:27:20.583Z,2.50
2023-01-17T13:30:34.695Z,2.20
2023-01-17T13:33:37.240Z,2.30
2023-01-17T13:36:14.874Z,2.60
2023-01-17T13:38:57.654Z,1.60
2023-01-17T13:41:47.732Z,2.30
2023-01-17T13:44:22.506Z,2.20
2023-01-17T13:47:10.859Z,2.10
2023-01-17T13:49:44.706Z,2.30
2023-01-17T13:52:23.165Z,1.80
2023-01-17T13:54:56.830Z,2.10
2023-01-17T13:57:30.040Z,1.90
2023-01-17T14:02:46.611Z,2.20
2023-01-17T14:05:21.346Z,2.10
2023-01-17T14:08:02.336Z,2.40
2023-01-17T14:10:41.662Z,3.90
2023-01-17T14:13:33.918Z,5.20
2023-01-17T14:16:05.500Z,4.10
2023-01-17T14:18:36.877Z,6.30
2023-01-17T14:21:35.711Z,3.70
2023-01-17T14:24:06.601Z,3.70
2023-01-17T14:26:56.293Z,2.90
2023-01-17T14:29:42.815Z,3.00
2023-01-17T14:32:13.976Z,3.20
2023-01-17T14:34:45.974Z,3.90
2023-01-17T14:37:33.505Z,4.00
2023-01-17T14:40:02.289Z,5.00
2023-01-17T14:42:33.762Z,7.30
2023-01-17T14:45:13.932Z,7.30
2023-01-17T14:47:46.023Z,9.20
2023-01-17T14:50:30.008Z,8.00
2023-01-17T14:55:48.527Z,5.30
2023-01-17T14:58:21.201Z,5.00
2023-01-17T15:00:51.749Z,6.30
2023-01-17T15:03:20.384Z,5.30
2023-01-17T15:05:51.985Z,7.20
2023-01-17T15:08:23.885Z,12.30
2023-01-17T15:11:03.161Z,13.00
2023-01-17T15:13:44.698Z,11.90
2023-01-17T15:16:25.606Z,9.20
2023-01-17T15:18:55.985Z,16.70
2023-01-17T15:21:42.541Z,13.50
2023-01-17T15:24:21.515Z,13.10
2023-01-17T15:26:52.692Z,15.70
2023-01-17T15:29:26.690Z,36.60
2023-01-17T15:32:01.188Z,20.90
2023-01-17T15:34:30.514Z,25.70
2023-01-17T15:37:08.123Z,30.00
2023-01-17T15:39:39.586Z,23.90
2023-01-17T15:42:38.757Z,27.50
2023-01-17T15:45:13.059Z,48.50
2023-01-17T15:47:41.444Z,28.80
2023-01-17T15:50:26.558Z,28.70
2023-01-17T15:53:01.032Z,36.10
2023-01-17T15:55:34.948Z,84.30
2023-01-17T15:58:05.359Z,47.10
2023-01-17T16:00:40.594Z,51.80
2023-01-17T16:03:23.495Z,36.20
2023-01-17T16:05:54.220Z,32.10
2023-01-17T16:08:31.179Z,28.00
2023-01-17T16:11:02.429Z,26.50
2023-01-17T16:13:43.433Z,25.30
2023-01-17T16:16:17.831Z,19.10
2023-01-17T16:18:57.755Z,15.80
2023-01-17T16:21:30.417Z,13.90
2023-01-17T16:24:00.119Z,16.30
2023-01-17T16:26:29.409Z,22.20
2023-01-17T16:28:57.882Z,28.10
2023-01-17T16:31:26.000Z,19.90
2023-01-17T16:33:59.372Z,17.90
2023-01-17T16:36:27.784Z,16.00
2023-01-17T16:38:56.102Z,17.70
2023-01-17T16:41:24.375Z,17.20
2023-01-17T16:44:04.969Z,24.30
2023-01-17T16:46:36.229Z,22.30
2023-01-17T16:49:05.088Z,20.00
2023-01-17T16:51:34.514Z,20.10
2023-01-17T16:54:05.152Z,19.80
2023-01-17T16:56:33.394Z,19.50
2023-01-17T16:59:01.635Z,17.90
2023-01-17T17:01:30.038Z,19.50
2023-01-17T17:03:58.095Z,18.70
2023-01-17T17:06:26.325Z,19.80
2023-01-17T17:08:54.402Z,28.10
2023-01-17T17:11:23.896Z,28.30
2023-01-17T17:13:52.273Z,32.40
2023-01-17T17:16:32.919Z,29.80
2023-01-17T17:19:07.595Z,29.10
2023-01-17T17:21:40.390Z,26.30
2023-01-17T17:24:12.725Z,20.80
2023-01-17T17:26:41.092Z,20.40
2023-01-17T17:29:12.112Z,15.00
2023-01-17T17:31:41.537Z,14.60
2023-01-17T17:34:12.110Z,56.40
2023-01-17T17:36:41.225Z,20.60
2023-01-17T17:39:14.927Z,11.50
2023-01-17T17:41:45.932Z,10.10
2023-01-17T17:44:17.572Z,9.70
2023-01-17T17:46:49.242Z,8.40
2023-01-17T17:49:17.314Z,11.50
2023-01-17T17:51:45.373Z,12.80
2023-01-17T17:54:15.016Z,14.60
2023-01-17T17:56:49.476Z,15.10
2023-01-17T17:59:20.349Z,16.30
2023-01-17T18:01:51.935Z,14.70
2023-01-17T18:04:20.063Z,13.50
2023-01-17T18:06:48.614Z,11.80
2023-01-17T18:09:16.865Z,14.30
2023-01-17T18:11:48.383Z,9.80
2023-01-17T18:14:17.793Z,7.90
2023-01-17T18:16:47.122Z,7.60
2023-01-17T18:19:22.238Z,6.60
2023-01-17T18:21:51.504Z,6.80
2023-01-17T18:24:24.532Z,7.00
2023-01-17T18:26:54.429Z,6.40
2023-01-17T18:29:24.028Z,5.60
2023-01-17T18:31:53.177Z,5.20
2023-01-17T18:34:24.689Z,5.90
2023-01-17T18:36:53.197Z,6.10
2023-01-17T18:39:27.361Z,9.60
2023-01-17T18:41:55.616Z,11.10
2023-01-17T18:44:24.535Z,8.20
2023-01-17T18:46:55.888Z,9.30
2023-01-17T18:49:24.034Z,11.70
2023-01-17T18:51:52.103Z,11.00
2023-01-17T18:54:20.690Z,11.10
2023-01-17T18:56:48.997Z,11.00
2023-01-17T18:59:21.487Z,11.70
2023-01-17T19:01:50.179Z,12.90
2023-01-17T19:04:18.932Z,12.40
2023-01-17T19:06:48.237Z,12.70
2023-01-17T19:09:17.316Z,12.10
2023-01-17T19:11:47.459Z,16.60
2023-01-17T19:14:15.901Z,11.80
2023-01-17T19:16:45.004Z,8.80
2023-01-17T19:19:15.393Z,8.60
2023-01-17T19:21:44.040Z,8.40
2023-01-17T19:24:13.307Z,9.40
2023-01-17T19:26:43.122Z,8.80
2023-01-17T19:29:12.330Z,7.70
2023-01-17T19:31:42.766Z,7.50
2023-01-17T19:34:14.246Z,8.30
2023-01-17T19:36:42.578Z,8.30
2023-01-17T19:39:10.865Z,8.20
2023-01-17T19:41:44.758Z,7.90
2023-01-17T19:44:14.591Z,8.00
2023-01-17T19:46:46.041Z,9.10
2023-01-17T19:49:16.522Z,10.20
2023-01-17T19:51:44.765Z,11.50
2023-01-17T19:54:15.236Z,11.10
2023-01-17T19:56:43.509Z,9.90
2023-01-17T19:59:14.089Z,10.20
2023-01-17T20:01:45.114Z,10.40
2023-01-17T20:04:18.162Z,10.40
2023-01-17T20:06:46.913Z,11.20
2023-01-17T20:09:14.935Z,10.30
2023-01-17T20:11:46.850Z,10.30
2023-01-17T20:14:15.360Z,9.90
2023-01-17T20:16:47.535Z,9.60
2023-01-17T20:19:16.467Z,10.40
2023-01-17T20:21:44.536Z,8.60
2023-01-17T20:24:16.857Z,9.40
2023-01-17T20:26:46.032Z,10.20
2023-01-17T20:29:15.952Z,10.00
2023-01-17T20:31:45.634Z,10.70
2023-01-17T20:34:14.612Z,10.60
2023-01-17T20:36:42.788Z,10.20
2023-01-17T20:39:17.082Z,9.90
2023-01-17T20:41:50.029Z,9.30
2023-01-17T20:44:23.009Z,9.70
2023-01-17T20:46:51.288Z,9.90
2023-01-17T20:49:20.049Z,8.90
2023-01-17T20:51:48.346Z,9.10
2023-01-17T20:54:18.636Z,9.40
2023-01-17T20:56:47.836Z,7.40
2023-01-17T20:59:21.803Z,7.70
2023-01-17T21:01:50.518Z,7.40
2023-01-17T21:04:25.848Z,7.20
2023-01-17T21:06:54.785Z,7.80
2023-01-17T21:09:23.671Z,9.30
2023-01-17T21:11:52.045Z,9.70
2023-01-17T21:14:21.805Z,9.50
2023-01-17T21:16:53.006Z,8.10
2023-01-17T21:19:21.286Z,7.10
2023-01-17T21:21:50.236Z,6.80
2023-01-17T21:24:19.613Z,6.20
2023-01-17T21:26:49.686Z,6.30
2023-01-17T21:29:17.825Z,6.80
2023-01-17T21:31:46.081Z,8.00
2023-01-17T21:34:14.305Z,8.00
2023-01-17T21:36:43.209Z,7.30
2023-01-17T21:39:15.841Z,8.00
2023-01-17T21:41:47.981Z,8.60
2023-01-17T21:44:19.776Z,8.10
2023-01-17T21:46:49.357Z,8.00
2023-01-17T21:49:17.695Z,7.70
2023-01-17T21:51:54.836Z,8.00
2023-01-17T21:54:47.066Z,8.70
2023-01-17T21:57:39.486Z,7.10
2023-01-17T22:00:11.018Z,8.60
2023-01-17T22:02:46.980Z,13.90
2023-01-17T22:05:16.865Z,13.00
2023-01-17T22:08:05.420Z,10.30
2023-01-17T22:10:44.517Z,6.70
2023-01-17T22:13:15.392Z,6.90
2023-01-17T22:15:44.609Z,8.20
2023-01-17T22:18:14.523Z,8.20
2023-01-17T22:20:42.982Z,8.60
2023-01-17T22:23:12.051Z,7.70
2023-01-17T22:25:40.233Z,6.90
2023-01-17T22:28:08.383Z,7.60
2023-01-17T22:30:36.407Z,7.10
2023-01-17T22:33:04.576Z,7.40
2023-01-17T22:35:32.968Z,6.10
2023-01-17T22:38:01.590Z,6.30
2023-01-17T22:40:31.649Z,7.40
2023-01-17T22:42:59.890Z,7.30
2023-01-17T22:45:31.207Z,6.70
2023-01-17T22:47:59.195Z,6.90
2023-01-17T22:50:29.629Z,7.40
2023-01-17T22:52:58.098Z,6.90
2023-01-17T22:55:26.358Z,8.20
2023-01-17T22:57:54.617Z,8.00
2023-01-17T23:00:22.950Z,7.70
2023-01-17T23:02:51.126Z,11.10
2023-01-17T23:05:20.251Z,10.50
2023-01-17T23:07:50.250Z,9.80
2023-01-17T23:10:38.387Z,9.40
2023-01-17T23:13:10.352Z,9.90
2023-01-17T23:15:59.673Z,8.60
2023-01-17T23:18:46.706Z,8.20
2023-01-17T23:21:18.031Z,6.40
2023-01-17T23:23:46.475Z,6.70
2023-01-17T23:26:14.593Z,6.40
2023-01-17T23:28:42.820Z,6.60
2023-01-17T23:31:12.539Z,6.60
2023-01-17T23:33:40.863Z,6.30
2023-01-17T23:36:09.426Z,6.80
2023-01-17T23:38:40.660Z,6.40
2023-01-17T23:41:27.749Z,6.90
2023-01-17T23:43:58.702Z,6.90
2023-01-17T23:46:27.288Z,7.90
2023-01-17T23:48:55.441Z,7.90
2023-01-17T23:51:23.521Z,6.70
2023-01-17T23:53:57.347Z,7.50
2023-01-17T23:56:25.770Z,7.40
2023-01-17T23:58:54.185Z,7.70
